Time;durP1;ratioP1;P1;durP2;ratioP2;P2;SDS_P1;SDS_P2;PMS_P1;PMS_P2;Temp;Humidity;BMP_temperature;BMP_pressure;BME280_temperature;BME280_humidity;BME280_pressure;Samples;Min_cycle;Max_cycle;Signal;HPM_P1;HPM_P2
2023/02/15 00:02:34;;;;;;;36.20;20.80;;;;;;;4.54;91.04;102696.94;5004775;28;20195;-67
2023/02/15 00:05:05;;;;;;;34.35;19.95;;;;;;;4.70;89.46;102694.75;4970589;28;20202;-68
2023/02/15 00:07:38;;;;;;;36.85;21.55;;;;;;;4.55;89.04;102693.28;5001992;28;20711;-66
2023/02/15 00:10:10;;;;;;;29.15;18.08;;;;;;;4.43;90.23;102695.09;5008018;28;20241;-65
2023/02/15 00:12:41;;;;;;;39.63;21.08;;;;;;;4.42;89.61;102696.06;5010441;28;20255;-67
2023/02/15 00:15:12;;;;;;;37.80;21.40;;;;;;;4.13;90.09;102698.28;4976971;28;20690;-64
2023/02/15 00:17:43;;;;;;;35.45;20.27;;;;;;;3.98;90.93;102693.22;5006834;28;20265;-67
2023/02/15 00:20:16;;;;;;;31.02;19.33;;;;;;;4.09;92.60;102682.56;4999325;28;20197;-68
2023/02/15 00:22:49;;;;;;;35.78;20.95;;;;;;;4.28;92.07;102675.69;5016184;28;20206;-67
2023/02/15 00:25:20;;;;;;;38.67;22.92;;;;;;;4.16;91.04;102676.63;4975452;28;20619;-68
2023/02/15 00:27:50;;;;;;;35.92;22.00;;;;;;;3.77;91.68;102669.78;5015112;28;20211;-66
2023/02/15 00:30:22;;;;;;;34.42;20.30;;;;;;;3.67;92.74;102673.28;5009647;28;20199;-67
2023/02/15 00:32:52;;;;;;;39.97;20.67;;;;;;;3.71;94.49;102670.25;4983564;28;20696;-68
2023/02/15 00:35:23;;;;;;;40.55;22.77;;;;;;;3.89;94.10;102668.84;4987142;28;20201;-68
2023/02/15 00:38:00;;;;;;;42.97;23.58;;;;;;;4.11;93.32;102669.91;5010485;28;20213;-67
2023/02/15 00:40:33;;;;;;;44.80;24.17;;;;;;;4.11;92.89;102669.91;4982186;28;20198;-64
2023/02/15 00:43:03;;;;;;;41.70;23.48;;;;;;;4.00;92.58;102668.03;5014129;28;20211;-67
2023/02/15 00:45:34;;;;;;;41.05;23.40;;;;;;;3.84;93.45;102673.69;5007213;28;20704;-66
2023/02/15 00:48:06;;;;;;;34.45;21.58;;;;;;;3.92;92.85;102682.00;5004646;28;20587;-68
2023/02/15 00:50:36;;;;;;;45.40;26.08;;;;;;;3.74;93.23;102683.38;4999949;28;20194;-67
2023/02/15 00:53:09;;;;;;;44.47;24.25;;;;;;;3.68;94.08;102675.81;5010981;28;20270;-66
2023/02/15 00:55:40;;;;;;;37.03;19.90;;;;;;;3.76;94.33;102684.16;5005958;28;20210;-68
2023/02/15 00:58:12;;;;;;;42.10;22.60;;;;;;;3.78;93.42;102676.84;5016092;28;20244;-67
2023/02/15 01:00:44;;;;;;;38.78;22.17;;;;;;;3.92;93.96;102673.97;4998214;28;20249;-67
2023/02/15 01:03:15;;;;;;;41.50;22.20;;;;;;;4.06;92.72;102674.78;5020647;28;20675;-67
2023/02/15 01:05:47;;;;;;;36.00;20.40;;;;;;;3.60;93.09;102664.81;4981980;28;20576;-68
2023/02/15 01:08:20;;;;;;;44.35;23.83;;;;;;;3.66;94.37;102659.03;4981954;28;20202;-66
2023/02/15 01:10:51;;;;;;;36.58;20.02;;;;;;;3.39;94.43;102658.38;5010673;28;20354;-65
2023/02/15 01:13:22;;;;;;;41.97;24.10;;;;;;;3.30;95.79;102654.56;4995950;28;20808;-66
2023/02/15 01:15:56;;;;;;;40.17;23.15;;;;;;;3.52;95.86;102648.50;4998459;28;20190;-68
2023/02/15 01:18:28;;;;;;;41.42;24.42;;;;;;;3.73;95.63;102649.53;5024244;28;20224;-67
2023/02/15 01:21:00;;;;;;;39.28;22.75;;;;;;;3.69;94.34;102648.06;5020375;28;20222;-67
2023/02/15 01:23:35;;;;;;;39.75;23.48;;;;;;;3.41;94.41;102641.25;4981686;28;20265;-68
2023/02/15 01:26:05;;;;;;;40.17;22.33;;;;;;;3.61;95.73;102642.44;5014809;28;20269;-66
2023/02/15 01:28:36;;;;;;;35.88;21.90;;;;;;;3.88;94.05;102643.03;5013666;28;20195;-67
2023/02/15 01:31:10;;;;;;;39.63;23.48;;;;;;;3.81;93.49;102643.63;5003733;28;20209;-67
2023/02/15 01:33:42;;;;;;;49.05;24.70;;;;;;;3.39;94.00;102637.81;5018213;28;20198;-68
2023/02/15 01:36:13;;;;;;;41.10;24.27;;;;;;;3.21;95.08;102630.28;5004696;28;20218;-65
2023/02/15 01:38:45;;;;;;;42.22;23.10;;;;;;;3.14;95.65;102629.91;5004801;28;20661;-67
2023/02/15 01:41:22;;;;;;;41.97;25.63;;;;;;;2.87;96.64;102630.06;5014705;28;20241;-67
2023/02/15 01:43:55;;;;;;;37.67;22.70;;;;;;;2.91;97.64;102628.00;4982693;28;20571;-67
2023/02/15 01:46:33;;;;;;;42.10;23.52;;;;;;;3.06;97.60;102613.53;4964429;28;20266;-66
2023/02/15 01:49:11;;;;;;;42.65;22.77;;;;;;;3.11;96.70;102610.53;4987523;28;20186;-66
2023/02/15 01:51:44;;;;;;;39.85;21.90;;;;;;;2.76;97.37;102605.91;4979878;28;20683;-66
2023/02/15 01:54:25;;;;;;;45.88;23.77;;;;;;;2.47;98.15;102601.81;4997154;28;20205;-66
2023/02/15 01:56:59;;;;;;;49.55;25.45;;;;;;;2.51;99.60;102601.50;5010009;28;20218;-67
2023/02/15 01:59:35;;;;;;;45.17;23.77;;;;;;;2.49;99.57;102598.06;4996586;28;20201;-67
2023/02/15 02:02:09;;;;;;;46.70;23.15;;;;;;;2.37;100.00;102598.06;4988385;28;20273;-66
2023/02/15 02:04:45;;;;;;;52.33;27.17;;;;;;;2.41;100.00;102592.41;5017716;28;20565;-65
2023/02/15 02:07:18;;;;;;;46.13;24.80;;;;;;;2.25;100.00;102589.09;5011939;28;20238;-66
2023/02/15 02:09:50;;;;;;;42.75;22.63;;;;;;;2.40;100.00;102588.03;4982060;28;20225;-67
2023/02/15 02:12:26;;;;;;;45.67;26.27;;;;;;;2.76;100.00;102581.84;5012658;28;20199;-66
2023/02/15 02:14:58;;;;;;;45.88;23.85;;;;;;;2.53;100.00;102582.66;4979019;28;20203;-68
2023/02/15 02:18:04;;;;;;;43.80;25.23;;;;;;;2.56;100.00;102585.13;5023431;28;20218;-67
2023/02/15 02:21:01;;;;;;;43.95;24.27;;;;;;;2.56;100.00;102579.78;5025601;28;20202;-67
2023/02/15 02:23:46;;;;;;;42.22;24.55;;;;;;;2.92;100.00;102577.09;5004553;28;20195;-67
2023/02/15 02:27:01;;;;;;;51.88;24.63;;;;;;;2.65;100.00;102584.47;5022842;28;20286;-68
2023/02/15 02:30:21;;;;;;;50.95;21.90;;;;;;;2.40;100.00;102576.47;5021273;28;20270;-67
2023/02/15 02:33:15;;;;;;;41.35;22.55;;;;;;;2.59;100.00;102566.19;5027559;28;20198;-66
2023/02/15 02:35:57;;;;;;;43.50;25.13;;;;;;;2.55;100.00;102562.03;4987198;28;20209;-67
2023/02/15 02:38:41;;;;;;;46.15;23.25;;;;;;;2.76;100.00;102563.13;4986415;28;20202;-66
2023/02/15 02:41:18;;;;;;;43.92;24.33;;;;;;;2.58;100.00;102561.78;5022938;28;20209;-67
2023/02/15 02:43:54;;;;;;;38.17;22.80;;;;;;;2.53;100.00;102566.63;5016887;28;20222;-65
2023/02/15 02:46:52;;;;;;;47.67;28.33;;;;;;;2.54;100.00;102560.31;4983168;28;20276;-66
2023/02/15 02:49:38;;;;;;;44.85;25.05;;;;;;;2.43;100.00;102560.22;5012516;28;20194;-66
2023/02/15 02:52:28;;;;;;;50.40;25.40;;;;;;;2.45;100.00;102552.94;5003858;28;20230;-66
2023/02/15 02:55:02;;;;;;;42.28;24.95;;;;;;;2.39;100.00;102558.72;5015011;28;20584;-66
2023/02/15 02:57:34;;;;;;;38.83;22.77;;;;;;;2.33;100.00;102556.47;4994011;28;20317;-66
2023/02/15 03:00:08;;;;;;;53.28;27.52;;;;;;;2.26;100.00;102548.06;5023609;28;20201;-66
2023/02/15 03:02:44;;;;;;;44.45;22.70;;;;;;;2.13;100.00;102545.38;5027375;28;20190;-66
2023/02/15 03:05:21;;;;;;;44.20;23.27;;;;;;;2.18;100.00;102545.91;5015916;28;20204;-67
2023/02/15 03:07:53;;;;;;;49.75;25.10;;;;;;;2.15;100.00;102548.81;4990893;28;20286;-67
2023/02/15 03:10:27;;;;;;;51.20;28.70;;;;;;;2.11;100.00;102544.66;4991450;28;20209;-67
2023/02/15 03:12:57;;;;;;;50.05;24.55;;;;;;;2.00;100.00;102544.53;5012657;28;20273;-67
2023/02/15 03:18:21;;;;;;;56.15;26.02;;;;;;;1.92;100.00;102541.56;5007361;28;20215;-67
2023/02/15 03:20:53;;;;;;;40.70;22.85;;;;;;;1.79;100.00;102537.19;5023558;28;20290;-67
2023/02/15 03:23:26;;;;;;;46.53;24.48;;;;;;;1.78;100.00;102540.81;5015868;28;20198;-67
2023/02/15 03:26:01;;;;;;;52.35;28.92;;;;;;;1.80;100.00;102528.19;4990885;28;20289;-67
2023/02/15 03:28:40;;;;;;;59.75;28.25;;;;;;;1.89;100.00;102531.06;5002187;28;20191;-67
2023/02/15 03:31:13;;;;;;;60.63;28.30;;;;;;;1.92;100.00;102522.88;5014775;28;20202;-65
2023/02/15 03:33:56;;;;;;;46.45;25.23;;;;;;;1.87;100.00;102524.13;5008746;28;20202;-65
2023/02/15 03:36:32;;;;;;;63.72;29.83;;;;;;;1.81;100.00;102525.41;5012917;28;20253;-67
2023/02/15 03:39:13;;;;;;;58.20;25.45;;;;;;;1.60;100.00;102521.53;4997736;28;20230;-67
2023/02/15 03:41:57;;;;;;;57.92;26.63;;;;;;;1.66;100.00;102523.78;5008472;28;20214;-67
2023/02/15 03:44:31;;;;;;;49.92;28.33;;;;;;;2.03;100.00;102514.13;4985035;28;20233;-67
2023/02/15 03:47:07;;;;;;;56.92;28.88;;;;;;;1.92;100.00;102517.53;4982892;28;20226;-68
2023/02/15 03:49:45;;;;;;;58.92;29.10;;;;;;;1.79;100.00;102516.69;4994896;28;20233;-67
2023/02/15 03:52:17;;;;;;;61.33;28.25;;;;;;;1.78;100.00;102514.09;5011721;28;20204;-68
2023/02/15 03:54:48;;;;;;;68.97;29.60;;;;;;;1.61;100.00;102515.25;4980937;28;20206;-67
2023/02/15 04:03:23;;;;;;;62.65;29.02;;;;;;;1.54;100.00;102513.97;5008835;28;20297;-65
2023/02/15 04:05:55;;;;;;;63.47;31.27;;;;;;;1.66;100.00;102507.78;4999903;28;20198;-67
2023/02/15 04:10:51;;;;;;;66.82;32.22;;;;;;;1.78;100.00;102496.28;4976402;28;20218;-68
2023/02/15 04:11:14;;;;;;;71.45;32.47;;;;;;;1.96;100.00;102503.00;4994103;28;20199;-66
2023/02/15 04:13:46;;;;;;;58.50;27.67;;;;;;;1.71;100.00;102503.84;4998054;28;20194;-64
2023/02/15 04:16:15;;;;;;;59.78;30.38;;;;;;;1.55;100.00;102492.50;4976909;28;20754;-68
2023/02/15 04:27:19;;;;;;;70.07;30.33;;;;;;;1.75;100.00;102483.97;4991563;28;20214;-66
2023/02/15 04:29:51;;;;;;;67.75;31.40;;;;;;;1.60;100.00;102486.84;4981557;28;20194;-67
2023/02/15 04:32:22;;;;;;;68.78;32.78;;;;;;;1.55;100.00;102491.69;4992627;28;20278;-68
2023/02/15 04:34:53;;;;;;;85.10;34.65;;;;;;;1.71;100.00;102487.84;4983786;28;20736;-66
2023/02/15 04:37:23;;;;;;;65.05;30.23;;;;;;;1.42;100.00;102490.78;5015793;28;20594;-67
2023/02/15 04:39:53;;;;;;;74.70;31.02;;;;;;;1.21;100.00;102487.78;5017461;28;20214;-67
2023/02/15 04:42:24;;;;;;;72.53;31.27;;;;;;;1.24;100.00;102482.22;5013950;28;20216;-66
2023/02/15 04:44:56;;;;;;;62.60;29.15;;;;;;;1.38;100.00;102478.63;5014509;28;20198;-68
2023/02/15 04:47:27;;;;;;;74.07;30.27;;;;;;;1.26;100.00;102470.47;4983033;28;20249;-68
2023/02/15 04:49:58;;;;;;;74.82;32.05;;;;;;;1.15;100.00;102462.38;5000197;28;20187;-66
2023/02/15 04:52:30;;;;;;;66.47;29.95;;;;;;;1.03;100.00;102452.50;5018727;28;20198;-67
2023/02/15 04:55:00;;;;;;;63.47;31.42;;;;;;;1.04;100.00;102454.22;5015148;28;20195;-66
2023/02/15 04:57:30;;;;;;;70.43;32.95;;;;;;;0.89;100.00;102444.59;4998005;28;20253;-67
2023/02/15 05:00:02;;;;;;;62.70;29.52;;;;;;;0.77;100.00;102450.75;5016805;28;20222;-68
2023/02/15 05:02:33;;;;;;;65.53;31.70;;;;;;;0.78;100.00;102444.44;5015014;28;20265;-67
2023/02/15 05:05:03;;;;;;;70.03;30.50;;;;;;;0.84;100.00;102438.69;5013503;28;20253;-67
2023/02/15 05:07:34;;;;;;;74.00;32.70;;;;;;;0.86;100.00;102434.13;4981909;28;20660;-67
2023/02/15 05:10:04;;;;;;;61.38;30.10;;;;;;;0.88;100.00;102426.88;5005387;28;20244;-69
2023/02/15 05:12:37;;;;;;;63.63;30.25;;;;;;;0.82;100.00;102425.47;5014869;28;20621;-67
2023/02/15 05:15:11;;;;;;;68.28;30.50;;;;;;;0.86;100.00;102431.47;5007543;28;20199;-67
2023/02/15 05:17:44;;;;;;;80.05;34.78;;;;;;;0.86;100.00;102436.81;4989505;28;20226;-67
2023/02/15 05:20:15;;;;;;;70.72;33.47;;;;;;;0.74;100.00;102434.94;5026180;28;20215;-65
2023/02/15 05:22:47;;;;;;;69.43;33.00;;;;;;;0.73;100.00;102438.56;5011499;28;20195;-70
2023/02/15 05:28:23;;;;;;;69.07;32.63;;;;;;;0.71;100.00;102436.00;5018835;28;20221;-66
2023/02/15 05:31:05;;;;;;;62.25;30.70;;;;;;;0.75;100.00;102426.00;5020823;28;20202;-67
2023/02/15 05:33:36;;;;;;;70.85;29.98;;;;;;;0.75;100.00;102431.31;4975614;28;20190;-67
2023/02/15 05:36:08;;;;;;;69.25;29.23;;;;;;;0.74;100.00;102421.63;5012527;28;20230;-66
2023/02/15 05:38:41;;;;;;;59.63;29.63;;;;;;;0.60;100.00;102429.66;5007264;28;20215;-67
2023/02/15 05:41:12;;;;;;;78.00;30.77;;;;;;;0.48;100.00;102427.81;5016342;28;20200;-67
2023/02/15 05:43:44;;;;;;;65.13;27.23;;;;;;;0.43;100.00;102421.00;4995641;28;20202;-68
2023/02/15 05:46:16;;;;;;;61.65;29.88;;;;;;;0.49;100.00;102413.53;5011142;28;20732;-67
2023/02/15 05:48:48;;;;;;;61.33;29.95;;;;;;;0.44;100.00;102414.69;4984516;28;20198;-67
2023/02/15 05:51:21;;;;;;;61.72;29.13;;;;;;;0.43;100.00;102418.31;4977961;28;20253;-68
2023/02/15 05:53:52;;;;;;;57.00;27.13;;;;;;;0.35;100.00;102412.63;4996128;28;20207;-66
2023/02/15 05:56:23;;;;;;;72.63;30.65;;;;;;;0.35;100.00;102412.63;5009776;28;20229;-66
2023/02/15 05:58:55;;;;;;;74.40;29.67;;;;;;;0.38;100.00;102407.13;4996751;28;20223;-66
2023/02/15 06:01:29;;;;;;;74.38;31.85;;;;;;;0.29;100.00;102402.34;5010251;28;20201;-67
2023/02/15 06:04:00;;;;;;;80.10;30.33;;;;;;;0.32;100.00;102410.16;5020792;28;20208;-67
2023/02/15 06:06:34;;;;;;;75.40;31.63;;;;;;;0.19;100.00;102411.91;5010985;28;20594;-66
2023/02/15 06:09:05;;;;;;;59.90;31.05;;;;;;;0.36;100.00;102411.66;5014729;28;20199;-68
2023/02/15 06:11:36;;;;;;;72.60;31.88;;;;;;;0.40;100.00;102407.00;5013565;28;20530;-65
2023/02/15 06:14:06;;;;;;;66.43;31.02;;;;;;;0.51;100.00;102408.97;4982733;28;20697;-66
2023/02/15 06:16:51;;;;;;;57.85;29.20;;;;;;;0.44;100.00;102414.69;4980648;28;20288;-68
2023/02/15 06:19:22;;;;;;;68.38;31.40;;;;;;;0.51;100.00;102417.81;5004537;28;20211;-66
2023/02/15 06:21:53;;;;;;;66.85;29.88;;;;;;;0.54;100.00;102411.41;5022208;28;20230;-67
2023/02/15 06:24:23;;;;;;;78.35;32.42;;;;;;;0.73;100.00;102415.44;4980459;28;20249;-66
2023/02/15 06:26:54;;;;;;;69.13;29.30;;;;;;;0.76;100.00;102417.91;5023396;28;20305;-67
2023/02/15 06:29:24;;;;;;;70.93;31.23;;;;;;;0.62;100.00;102417.13;5008448;28;20191;-68
2023/02/15 06:31:56;;;;;;;94.10;33.47;;;;;;;0.78;100.00;102415.13;4969862;28;20214;-68
2023/02/15 06:34:27;;;;;;;92.38;36.67;;;;;;;0.76;100.00;102403.72;4988593;28;20198;-67
2023/02/15 06:36:57;;;;;;;67.68;30.25;;;;;;;0.99;100.00;102402.16;5016744;28;20226;-69
2023/02/15 06:39:28;;;;;;;74.70;30.95;;;;;;;0.88;100.00;102405.56;4990309;28;20278;-67
2023/02/15 06:42:00;;;;;;;79.90;33.42;;;;;;;1.03;100.00;102409.84;4996690;28;20194;-68
2023/02/15 06:44:31;;;;;;;73.40;31.88;;;;;;;0.92;100.00;102401.72;5023295;28;20263;-69
2023/02/15 06:47:03;;;;;;;89.20;34.78;;;;;;;0.95;100.00;102406.88;4992836;28;20246;-67
2023/02/15 06:49:34;;;;;;;81.68;36.47;;;;;;;0.84;100.00;102399.59;4996131;28;20206;-67
2023/02/15 06:52:05;;;;;;;79.07;34.13;;;;;;;0.90;100.00;102403.66;4987175;28;20198;-67
2023/02/15 06:54:43;;;;;;;84.63;35.10;;;;;;;0.90;100.00;102395.66;5021938;28;20198;-68
2023/02/15 06:57:13;;;;;;;81.25;33.60;;;;;;;0.94;100.00;102397.16;5024790;28;20230;-68
2023/02/15 06:59:44;;;;;;;69.28;33.92;;;;;;;1.01;100.00;102409.13;5021408;28;20329;-68
2023/02/15 07:02:18;;;;;;;83.57;36.22;;;;;;;1.05;100.00;102402.63;4986645;28;20199;-67
2023/02/15 07:04:50;;;;;;;89.00;34.22;;;;;;;1.10;100.00;102404.97;5004126;28;20249;-67
2023/02/15 07:07:21;;;;;;;94.55;34.03;;;;;;;1.25;100.00;102401.25;5001751;28;20218;-67
2023/02/15 07:09:51;;;;;;;80.70;33.72;;;;;;;1.29;100.00;102398.28;4983598;28;20209;-67
2023/02/15 07:15:12;;;;;;;85.72;34.95;;;;;;;1.20;100.00;102396.25;5011598;28;20210;-66
2023/02/15 07:17:47;;;;;;;86.43;33.55;;;;;;;1.41;100.00;102390.38;5008304;28;20234;-67
2023/02/15 07:20:20;;;;;;;84.07;33.20;;;;;;;1.45;100.00;102379.41;5013422;28;20242;-68
2023/02/15 07:22:53;;;;;;;74.38;33.65;;;;;;;1.56;100.00;102381.28;5004408;28;20601;-69
2023/02/15 07:25:24;;;;;;;83.80;34.45;;;;;;;1.56;100.00;102375.97;5007199;28;20615;-68
2023/02/15 07:27:58;;;;;;;86.10;32.15;;;;;;;1.83;100.00;102371.34;5010834;28;20218;-70
2023/02/15 07:30:29;;;;;;;92.10;38.00;;;;;;;1.75;100.00;102376.34;4976439;28;20200;-68
2023/02/15 07:35:52;;;;;;;87.30;34.28;;;;;;;1.68;100.00;102375.09;5018442;28;20190;-68
2023/02/15 07:38:25;;;;;;;97.82;35.25;;;;;;;1.68;100.00;102364.44;4993017;28;20198;-68
2023/02/15 07:41:01;;;;;;;82.40;32.25;;;;;;;1.69;100.00;102363.47;5014812;28;20222;-66
2023/02/15 07:43:35;;;;;;;84.90;33.40;;;;;;;1.65;100.00;102359.28;4998493;28;20606;-67
2023/02/15 07:46:11;;;;;;;85.47;34.17;;;;;;;1.64;100.00;102354.94;5006768;28;20223;-67
2023/02/15 07:48:46;;;;;;;88.05;35.05;;;;;;;1.67;100.00;102354.72;5013449;28;20202;-69
2023/02/15 07:51:18;;;;;;;92.25;36.30;;;;;;;1.73;100.00;102349.81;4975976;28;20201;-67
2023/02/15 07:53:56;;;;;;;77.10;34.17;;;;;;;1.86;100.00;102346.22;5010382;28;20428;-68
2023/02/15 07:56:26;;;;;;;83.22;35.70;;;;;;;1.98;100.00;102343.53;5006507;28;20210;-68
2023/02/15 07:59:04;;;;;;;90.55;35.13;;;;;;;2.04;100.00;102345.75;4978674;28;20652;-69
2023/02/15 08:01:39;;;;;;;92.60;39.40;;;;;;;2.12;100.00;102338.06;4993962;28;20221;-70
2023/02/15 08:04:12;;;;;;;87.63;38.17;;;;;;;2.32;100.00;102338.41;5006764;28;20190;-68
2023/02/15 08:06:44;;;;;;;94.90;38.55;;;;;;;2.18;100.00;102347.41;5016808;28;20245;-68
2023/02/15 08:09:17;;;;;;;84.38;36.33;;;;;;;2.42;99.81;102336.75;4976921;28;20202;-69
2023/02/15 08:11:49;;;;;;;89.28;39.25;;;;;;;2.35;99.16;102339.00;4985041;28;20202;-69
2023/02/15 08:14:21;;;;;;;88.03;37.35;;;;;;;2.49;97.78;102341.50;5002895;28;20209;-68
2023/02/15 08:16:56;;;;;;;84.60;33.22;;;;;;;2.52;97.28;102340.41;5012000;28;20218;-71
2023/02/15 08:19:30;;;;;;;80.57;34.00;;;;;;;2.13;97.69;102339.72;5016487;28;20200;-70
2023/02/15 08:22:03;;;;;;;69.88;32.35;;;;;;;2.23;98.67;102344.44;5013788;28;20264;-68
2023/02/15 08:24:36;;;;;;;95.32;39.00;;;;;;;2.66;97.49;102334.91;4997102;28;20549;-68
2023/02/15 08:27:07;;;;;;;82.05;36.50;;;;;;;2.70;96.30;102339.06;4999501;28;20218;-68
2023/02/15 08:29:41;;;;;;;71.28;31.20;;;;;;;2.75;96.14;102341.38;4982158;28;20234;-69
2023/02/15 08:32:13;;;;;;;70.13;33.38;;;;;;;2.91;95.84;102337.38;4987561;28;20202;-68
2023/02/15 08:34:46;;;;;;;56.42;30.23;;;;;;;3.09;94.85;102328.94;4980121;28;20210;-67
2023/02/15 08:37:15;;;;;;;65.55;30.73;;;;;;;2.81;94.79;102335.56;5001462;28;20210;-69
2023/02/15 08:39:47;;;;;;;63.65;29.60;;;;;;;2.85;94.85;102331.69;4979418;28;20201;-68
2023/02/15 08:42:20;;;;;;;68.40;31.40;;;;;;;2.84;94.93;102319.28;5015128;28;20191;-67
2023/02/15 08:44:52;;;;;;;56.90;29.30;;;;;;;3.03;96.04;102320.41;4999216;28;20555;-68
2023/02/15 08:47:27;;;;;;;70.13;31.90;;;;;;;3.23;93.66;102315.34;4998133;28;20214;-68
2023/02/15 08:49:59;;;;;;;66.15;29.98;;;;;;;3.11;93.96;102321.63;4979194;28;20689;-66
2023/02/15 08:52:34;;;;;;;60.70;31.90;;;;;;;3.14;93.21;102316.06;5013439;28;20205;-68
2023/02/15 08:55:24;;;;;;;60.50;29.65;;;;;;;3.12;93.07;102312.63;5001267;28;20213;-69
2023/02/15 08:58:03;;;;;;;57.28;28.55;;;;;;;3.10;94.14;102304.72;5015361;28;20758;-66
2023/02/15 09:00:42;;;;;;;58.33;29.88;;;;;;;3.12;92.56;102307.28;5007314;28;20213;-67
2023/02/15 09:03:26;;;;;;;59.58;29.50;;;;;;;3.01;92.14;102298.28;5011596;28;20198;-68
2023/02/15 09:06:21;;;;;;;67.80;31.63;;;;;;;3.13;93.26;102298.31;5010863;28;20631;-68
2023/02/15 09:08:59;;;;;;;59.30;29.73;;;;;;;3.03;92.56;102293.66;5022634;28;20213;-68
2023/02/15 09:11:38;;;;;;;55.88;25.95;;;;;;;3.11;92.81;102302.91;5010060;28;20549;-67
2023/02/15 09:14:13;;;;;;;56.20;28.85;;;;;;;3.21;91.82;102295.88;5056636;23;20569;-77
2023/02/15 09:16:46;;;;;;;45.75;24.80;;;;;;;3.38;91.52;102306.09;5018301;28;20198;-80
2023/02/15 09:19:17;;;;;;;53.20;28.13;;;;;;;3.63;90.53;102297.81;5021395;28;20563;-80
2023/02/15 09:21:49;;;;;;;48.10;28.85;;;;;;;3.80;90.00;102302.66;5032823;28;20201;-80
2023/02/15 09:24:19;;;;;;;42.92;23.90;;;;;;;3.90;89.40;102300.94;5009584;28;20233;-81
2023/02/15 09:26:49;;;;;;;55.67;29.02;;;;;;;3.76;88.86;102303.88;5008951;28;20225;-80
2023/02/15 09:29:20;;;;;;;46.75;27.58;;;;;;;3.87;89.24;102295.81;5001980;28;20222;-79
2023/02/15 09:31:56;;;;;;;41.92;24.83;;;;;;;3.86;88.17;102299.50;4986834;28;20191;-81
2023/02/15 09:34:34;;;;;;;44.88;27.10;;;;;;;3.90;88.41;102297.41;5005997;28;20274;-79
2023/02/15 09:38:05;;;;;;;47.45;24.55;;;;;;;4.28;86.84;102299.63;4984639;28;20256;-81
2023/02/15 09:45:26;;;;;;;44.33;23.33;;;;;;;4.28;86.51;102305.84;4920755;29;20692;-80
2023/02/15 09:48:29;;;;;;;44.10;24.83;;;;;;;4.35;86.63;102300.81;4996858;28;20257;-79
2023/02/15 09:55:37;;;;;;;40.20;21.33;;;;;;;3.85;86.76;102300.47;5223220;23;20230;-67
2023/02/15 09:58:18;;;;;;;35.63;21.75;;;;;;;4.08;87.43;102293.22;5033508;28;20238;-68
2023/02/15 10:00:56;;;;;;;37.65;22.13;;;;;;;4.22;87.04;102295.63;5050816;28;20228;-68
2023/02/15 10:03:43;;;;;;;42.67;24.02;;;;;;;4.49;86.49;102291.63;5034816;28;20192;-67
2023/02/15 10:06:25;;;;;;;45.42;24.98;;;;;;;4.61;84.04;102286.06;5032726;28;20236;-68
2023/02/15 10:09:11;;;;;;;40.33;25.73;;;;;;;4.69;84.73;102297.00;5024315;28;20198;-67
2023/02/15 10:11:58;;;;;;;37.95;22.55;;;;;;;4.94;83.59;102293.06;5017153;28;20205;-70
2023/02/15 10:14:50;;;;;;;44.15;26.90;;;;;;;5.01;82.82;102288.88;5059585;28;20201;-68
2023/02/15 10:17:32;;;;;;;40.00;23.20;;;;;;;5.19;81.83;102284.59;5035903;28;20285;-67
2023/02/15 10:20:12;;;;;;;48.25;24.52;;;;;;;5.13;81.55;102281.63;5046692;28;20256;-67
2023/02/15 10:22:56;;;;;;;45.70;24.38;;;;;;;5.17;81.26;102277.69;5006417;28;20607;-66
2023/02/15 10:25:34;;;;;;;40.80;24.42;;;;;;;5.05;81.50;102278.72;5040689;28;20189;-67
2023/02/15 10:28:07;;;;;;;38.20;24.90;;;;;;;4.95;81.66;102270.63;5044455;28;20219;-68
2023/02/15 10:30:46;;;;;;;40.88;23.95;;;;;;;4.94;82.45;102268.09;5043839;28;20240;-66
2023/02/15 10:33:31;;;;;;;39.70;21.98;;;;;;;4.82;81.74;102257.44;5018937;28;20248;-69
2023/02/15 10:36:12;;;;;;;44.90;25.13;;;;;;;4.73;82.54;102252.00;5020260;28;20256;-68
2023/02/15 10:38:44;;;;;;;42.63;22.08;;;;;;;4.77;83.37;102248.06;5029042;28;20213;-66
2023/02/15 10:41:34;;;;;;;44.58;25.00;;;;;;;4.94;83.49;102249.31;5010293;28;20252;-67
2023/02/15 10:44:25;;;;;;;43.33;24.33;;;;;;;4.99;81.55;102252.41;5030802;28;20192;-67
2023/02/15 10:47:23;;;;;;;40.20;25.38;;;;;;;4.99;83.06;102245.22;5009896;28;20217;-68
2023/02/15 10:50:08;;;;;;;37.33;24.20;;;;;;;5.30;82.36;102240.72;5032584;28;20202;-67
2023/02/15 10:53:27;;;;;;;42.55;23.95;;;;;;;5.58;81.07;102233.75;5015501;28;20802;-66
2023/02/15 10:56:05;;;;;;;35.35;21.27;;;;;;;5.59;79.55;102235.44;5025273;28;20231;-68
2023/02/15 10:58:50;;;;;;;40.10;23.02;;;;;;;5.54;79.75;102233.16;5031801;28;20554;-68
2023/02/15 11:01:29;;;;;;;40.88;24.60;;;;;;;5.77;80.07;102227.56;5016973;28;20263;-68
2023/02/15 11:04:31;;;;;;;42.42;22.90;;;;;;;5.96;78.38;102222.25;5034833;28;20181;-69
2023/02/15 11:07:04;;;;;;;45.83;24.92;;;;;;;6.18;78.14;102221.13;5016532;28;20236;-68
2023/02/15 11:09:39;;;;;;;36.47;22.30;;;;;;;6.30;80.41;102217.28;5016912;28;20194;-69
2023/02/15 11:12:15;;;;;;;42.97;25.45;;;;;;;6.40;79.00;102223.53;5016583;28;20237;-65
2023/02/15 11:14:50;;;;;;;46.33;23.27;;;;;;;6.42;76.59;102225.09;5017936;28;20205;-67
2023/02/15 11:17:26;;;;;;;34.20;22.52;;;;;;;6.36;77.96;102208.66;5027302;28;20215;-67
2023/02/15 11:20:04;;;;;;;39.38;24.88;;;;;;;6.42;76.69;102219.72;5021804;28;20204;-68
2023/02/15 11:22:34;;;;;;;35.10;24.05;;;;;;;6.48;76.27;102212.91;5030880;28;20624;-68
2023/02/15 11:25:16;;;;;;;35.20;23.17;;;;;;;6.44;76.21;102206.94;5027213;28;20193;-68
2023/02/15 11:27:47;;;;;;;34.03;20.08;;;;;;;6.36;75.94;102208.66;5051652;28;20686;-69
2023/02/15 11:30:20;;;;;;;37.28;20.50;;;;;;;6.17;76.90;102204.16;5020372;28;20225;-67
2023/02/15 11:32:54;;;;;;;33.33;22.20;;;;;;;6.11;77.33;102200.19;5017037;28;20186;-68
2023/02/15 11:35:33;;;;;;;46.35;23.05;;;;;;;6.34;76.96;102200.75;5015774;28;20232;-67
2023/02/15 11:38:08;;;;;;;37.97;24.17;;;;;;;6.45;76.89;102195.22;5016176;28;20221;-66
2023/02/15 11:40:42;;;;;;;33.28;23.88;;;;;;;6.90;75.45;102192.72;5016701;28;20220;-67
2023/02/15 11:43:18;;;;;;;34.85;22.42;;;;;;;6.86;74.34;102187.78;5015397;28;20271;-66
2023/02/15 11:45:48;;;;;;;42.85;23.23;;;;;;;6.83;74.46;102182.66;5009003;28;20600;-69
2023/02/15 11:48:18;;;;;;;36.35;23.85;;;;;;;6.82;74.42;102183.69;5011693;28;20267;-68
2023/02/15 11:50:48;;;;;;;40.47;25.27;;;;;;;6.92;73.88;102185.31;5015368;28;20255;-67
2023/02/15 11:53:20;;;;;;;37.83;21.52;;;;;;;6.96;74.11;102175.13;5022861;28;20581;-67
2023/02/15 11:55:51;;;;;;;32.50;20.95;;;;;;;7.16;73.38;102184.81;5021477;28;20625;-68
2023/02/15 11:58:31;;;;;;;38.97;24.42;;;;;;;7.22;73.57;102176.13;5050191;28;20670;-68
2023/02/15 12:01:05;;;;;;;38.85;25.20;;;;;;;7.47;72.82;102182.66;5006780;28;20216;-68
2023/02/15 12:03:47;;;;;;;33.85;21.67;;;;;;;7.44;72.38;102174.88;5036209;28;20264;-69
2023/02/15 12:06:28;;;;;;;38.22;22.30;;;;;;;7.51;72.25;102170.56;4997054;28;20218;-67
2023/02/15 12:09:06;;;;;;;37.70;21.35;;;;;;;7.61;71.56;102175.91;5014914;28;20244;-68
2023/02/15 12:11:37;;;;;;;39.67;22.92;;;;;;;7.53;71.90;102168.59;5014685;28;20216;-68
2023/02/15 12:14:08;;;;;;;40.08;23.55;;;;;;;7.57;72.04;102174.50;5014749;28;20298;-68
2023/02/15 12:16:44;;;;;;;40.40;24.05;;;;;;;7.80;71.55;102171.22;5014674;28;20284;-68
2023/02/15 12:19:29;;;;;;;37.00;22.70;;;;;;;7.93;71.08;102161.94;5031352;28;20581;-66
2023/02/15 12:22:00;;;;;;;44.55;23.77;;;;;;;7.84;70.47;102161.00;5019775;28;20683;-68
2023/02/15 12:24:31;;;;;;;38.35;22.33;;;;;;;8.05;70.24;102152.59;5005379;28;20202;-67
2023/02/15 12:27:04;;;;;;;37.53;22.95;;;;;;;8.23;69.86;102145.31;5014766;28;20573;-68
2023/02/15 12:29:41;;;;;;;42.60;23.67;;;;;;;8.44;68.81;102145.00;5037579;28;20197;-67